N33BZ EGJB-EGHI
Flight info
| Callsign | N33BZ |
|---|---|
| Flight time | 0h 42m |
| Altitude | 7000 |
| Route | ORTAC Q41 THRED |
| Aircraft | BE36/L-BDFGLORY/S |
Departure
| Time | 2026-05-08 19:13 |
|---|---|
| Airport | Guernsey Airport (EGJB) |
Arrival
| Time | 2026-05-08 19:55 |
|---|---|
| Airport | Southampton Airport (EGHI) |
| Time | Latitude | Longitude | Altitude | Speed | Heading |
|---|---|---|---|---|---|
| 2026-05-08 18:58 | 49.43353 | -2.58949 | 327 ft | 0 kts | 358° |
| 2026-05-08 19:06 | 49.43359 | -2.58949 | 325 ft | 4 kts | 352° |
| 2026-05-08 19:07 | 49.43384 | -2.58990 | 326 ft | 7 kts | 285° |
| 2026-05-08 19:07 | 49.43382 | -2.59088 | 327 ft | 10 kts | 255° |
| 2026-05-08 19:07 | 49.43374 | -2.59199 | 329 ft | 11 kts | 269° |
| 2026-05-08 19:07 | 49.43370 | -2.59324 | 329 ft | 13 kts | 267° |
| 2026-05-08 19:08 | 49.43366 | -2.59477 | 328 ft | 16 kts | 268° |
| 2026-05-08 19:08 | 49.43360 | -2.59644 | 325 ft | 18 kts | 264° |
| 2026-05-08 19:08 | 49.43349 | -2.59777 | 323 ft | 12 kts | 264° |
| 2026-05-08 19:08 | 49.43342 | -2.59936 | 314 ft | 18 kts | 269° |
| 2026-05-08 19:09 | 49.43337 | -2.60163 | 297 ft | 24 kts | 267° |
| 2026-05-08 19:09 | 49.43329 | -2.60418 | 288 ft | 24 kts | 266° |
| 2026-05-08 19:09 | 49.43325 | -2.60592 | 291 ft | 6 kts | 269° |
| 2026-05-08 19:09 | 49.43328 | -2.60636 | 290 ft | 3 kts | 281° |
| 2026-05-08 19:10 | 49.43331 | -2.60654 | 291 ft | 0 kts | 303° |
| 2026-05-08 19:10 | 49.43338 | -2.60654 | 291 ft | 0 kts | 53° |
| 2026-05-08 19:11 | 49.43375 | -2.60652 | 294 ft | 5 kts | 355° |
| 2026-05-08 19:12 | 49.43444 | -2.60656 | 302 ft | 11 kts | 357° |
| 2026-05-08 19:12 | 49.43486 | -2.60617 | 303 ft | 6 kts | 79° |
| 2026-05-08 19:12 | 49.43496 | -2.60223 | 313 ft | 69 kts | 88° |
| 2026-05-08 19:12 | 49.43496 | -2.59395 | 588 ft | 81 kts | 88° |
| 2026-05-08 19:13 | 49.43510 | -2.58479 | 904 ft | 93 kts | 86° |
| 2026-05-08 19:13 | 49.43545 | -2.57404 | 1155 ft | 107 kts | 88° |
| 2026-05-08 19:13 | 49.43577 | -2.56227 | 1410 ft | 113 kts | 89° |
| 2026-05-08 19:13 | 49.43660 | -2.55017 | 1663 ft | 117 kts | 69° |
| 2026-05-08 19:14 | 49.44290 | -2.54166 | 1904 ft | 125 kts | 40° |
| 2026-05-08 19:14 | 49.45017 | -2.53408 | 2163 ft | 128 kts | 40° |
| 2026-05-08 19:14 | 49.45690 | -2.52704 | 2392 ft | 129 kts | 40° |
| 2026-05-08 19:14 | 49.46431 | -2.51918 | 2642 ft | 130 kts | 40° |
| 2026-05-08 19:15 | 49.47177 | -2.51128 | 2892 ft | 131 kts | 40° |
| 2026-05-08 19:15 | 49.47918 | -2.50346 | 3140 ft | 131 kts | 40° |
| 2026-05-08 19:15 | 49.48670 | -2.49552 | 3390 ft | 132 kts | 40° |
| 2026-05-08 19:15 | 49.49429 | -2.48757 | 3638 ft | 132 kts | 40° |
| 2026-05-08 19:16 | 49.50189 | -2.47950 | 3879 ft | 133 kts | 40° |
| 2026-05-08 19:16 | 49.50944 | -2.47132 | 4135 ft | 133 kts | 40° |
| 2026-05-08 19:16 | 49.51699 | -2.46314 | 4390 ft | 132 kts | 40° |
| 2026-05-08 19:16 | 49.52450 | -2.45500 | 4646 ft | 132 kts | 40° |
| 2026-05-08 19:17 | 49.53202 | -2.44688 | 4900 ft | 132 kts | 40° |
| 2026-05-08 19:17 | 49.53952 | -2.43876 | 5147 ft | 132 kts | 40° |
| 2026-05-08 19:17 | 49.54698 | -2.43070 | 5396 ft | 131 kts | 40° |
| 2026-05-08 19:17 | 49.55449 | -2.42285 | 5653 ft | 131 kts | 36° |
| 2026-05-08 19:18 | 49.56237 | -2.41585 | 5901 ft | 131 kts | 34° |
| 2026-05-08 19:18 | 49.57042 | -2.40853 | 6146 ft | 137 kts | 34° |
| 2026-05-08 19:18 | 49.57871 | -2.40087 | 6398 ft | 141 kts | 35° |
| 2026-05-08 19:18 | 49.58717 | -2.39301 | 6637 ft | 143 kts | 34° |
| 2026-05-08 19:19 | 49.59569 | -2.38507 | 6876 ft | 143 kts | 34° |
| 2026-05-08 19:19 | 49.60430 | -2.37703 | 7035 ft | 150 kts | 34° |
| 2026-05-08 19:19 | 49.61362 | -2.36831 | 7036 ft | 162 kts | 34° |
| 2026-05-08 19:19 | 49.62350 | -2.35909 | 7039 ft | 168 kts | 34° |
| 2026-05-08 19:20 | 49.63349 | -2.34977 | 7044 ft | 167 kts | 34° |
| 2026-05-08 19:20 | 49.64007 | -2.34362 | 7045 ft | 167 kts | 34° |
| 2026-05-08 19:20 | 49.65332 | -2.33124 | 7044 ft | 166 kts | 34° |
| 2026-05-08 19:20 | 49.66317 | -2.32203 | 7047 ft | 165 kts | 34° |
| 2026-05-08 19:21 | 49.67301 | -2.31281 | 7048 ft | 166 kts | 34° |
| 2026-05-08 19:21 | 49.68287 | -2.30358 | 7049 ft | 166 kts | 34° |
| 2026-05-08 19:21 | 49.69274 | -2.29434 | 7050 ft | 166 kts | 34° |
| 2026-05-08 19:21 | 49.70258 | -2.28511 | 7050 ft | 166 kts | 34° |
| 2026-05-08 19:22 | 49.71244 | -2.27586 | 7043 ft | 166 kts | 34° |
| 2026-05-08 19:22 | 49.72229 | -2.26662 | 7049 ft | 166 kts | 34° |
| 2026-05-08 19:22 | 49.73216 | -2.25736 | 7047 ft | 167 kts | 34° |
| 2026-05-08 19:22 | 49.74213 | -2.24799 | 7043 ft | 168 kts | 33° |
| 2026-05-08 19:23 | 49.75214 | -2.23859 | 7040 ft | 169 kts | 34° |
| 2026-05-08 19:23 | 49.76206 | -2.22927 | 7041 ft | 169 kts | 34° |
| 2026-05-08 19:23 | 49.77212 | -2.21981 | 7042 ft | 169 kts | 33° |
| 2026-05-08 19:23 | 49.78217 | -2.21035 | 7040 ft | 169 kts | 34° |
| 2026-05-08 19:24 | 49.79223 | -2.20088 | 7042 ft | 169 kts | 34° |
| 2026-05-08 19:24 | 49.80230 | -2.19140 | 7040 ft | 169 kts | 34° |
| 2026-05-08 19:24 | 49.81174 | -2.18249 | 7043 ft | 169 kts | 33° |
| 2026-05-08 19:24 | 49.82176 | -2.17305 | 7045 ft | 169 kts | 33° |
| 2026-05-08 19:25 | 49.83182 | -2.16357 | 7044 ft | 170 kts | 34° |
| 2026-05-08 19:25 | 49.84190 | -2.15404 | 7045 ft | 170 kts | 34° |
| 2026-05-08 19:25 | 49.85199 | -2.14453 | 7047 ft | 169 kts | 33° |
| 2026-05-08 19:25 | 49.86201 | -2.13506 | 7048 ft | 169 kts | 33° |
| 2026-05-08 19:26 | 49.87204 | -2.12558 | 7052 ft | 169 kts | 34° |
| 2026-05-08 19:26 | 49.88209 | -2.11608 | 7049 ft | 169 kts | 34° |
| 2026-05-08 19:26 | 49.89212 | -2.10658 | 7055 ft | 169 kts | 33° |
| 2026-05-08 19:26 | 49.90215 | -2.09710 | 7056 ft | 169 kts | 33° |
| 2026-05-08 19:27 | 49.91218 | -2.08759 | 7058 ft | 170 kts | 34° |
| 2026-05-08 19:27 | 49.92227 | -2.07803 | 7059 ft | 170 kts | 34° |
| 2026-05-08 19:27 | 49.93222 | -2.06861 | 7073 ft | 168 kts | 33° |
| 2026-05-08 19:27 | 49.94206 | -2.05928 | 7073 ft | 168 kts | 34° |
| 2026-05-08 19:28 | 49.95208 | -2.04977 | 7073 ft | 170 kts | 34° |
| 2026-05-08 19:28 | 49.96215 | -2.04020 | 7074 ft | 170 kts | 34° |
| 2026-05-08 19:28 | 49.97227 | -2.03060 | 7074 ft | 170 kts | 33° |
| 2026-05-08 19:28 | 49.97568 | -2.02735 | 7074 ft | 170 kts | 33° |
| 2026-05-08 19:29 | 49.98246 | -2.02092 | 7074 ft | 170 kts | 33° |
| 2026-05-08 19:29 | 49.99257 | -2.01131 | 7073 ft | 171 kts | 34° |
| 2026-05-08 19:29 | 50.00294 | -2.00253 | 7147 ft | 167 kts | 23° |
| 2026-05-08 19:30 | 50.01338 | -1.99566 | 7391 ft | 159 kts | 25° |
| 2026-05-08 19:30 | 50.02328 | -1.98882 | 7635 ft | 153 kts | 25° |
| 2026-05-08 19:30 | 50.03290 | -1.98226 | 7883 ft | 149 kts | 25° |
| 2026-05-08 19:30 | 50.04236 | -1.97586 | 8132 ft | 147 kts | 25° |
| 2026-05-08 19:31 | 50.05162 | -1.96959 | 8387 ft | 144 kts | 25° |
| 2026-05-08 19:31 | 50.06071 | -1.96343 | 8640 ft | 141 kts | 25° |
| 2026-05-08 19:31 | 50.06966 | -1.95737 | 8894 ft | 139 kts | 24° |
| 2026-05-08 19:31 | 50.07860 | -1.95131 | 9069 ft | 145 kts | 24° |
| 2026-05-08 19:32 | 50.08810 | -1.94486 | 9068 ft | 153 kts | 25° |
| 2026-05-08 19:32 | 50.09800 | -1.93814 | 9070 ft | 157 kts | 24° |
| 2026-05-08 19:32 | 50.10810 | -1.93129 | 9073 ft | 160 kts | 24° |
| 2026-05-08 19:32 | 50.11838 | -1.92432 | 9078 ft | 162 kts | 24° |
| 2026-05-08 19:33 | 50.12879 | -1.91725 | 9083 ft | 164 kts | 24° |
| 2026-05-08 19:33 | 50.13929 | -1.91012 | 9081 ft | 165 kts | 24° |
| 2026-05-08 19:33 | 50.14979 | -1.90298 | 9084 ft | 165 kts | 24° |
| 2026-05-08 19:33 | 50.16032 | -1.89582 | 9089 ft | 166 kts | 24° |
| 2026-05-08 19:34 | 50.17091 | -1.88862 | 9091 ft | 166 kts | 24° |
| 2026-05-08 19:34 | 50.18150 | -1.88141 | 9094 ft | 166 kts | 24° |
| 2026-05-08 19:34 | 50.19207 | -1.87421 | 9090 ft | 166 kts | 24° |
| 2026-05-08 19:34 | 50.20263 | -1.86701 | 9087 ft | 165 kts | 24° |
| 2026-05-08 19:35 | 50.21301 | -1.85994 | 9090 ft | 166 kts | 24° |
| 2026-05-08 19:35 | 50.22381 | -1.85257 | 9092 ft | 166 kts | 24° |
| 2026-05-08 19:35 | 50.23436 | -1.84538 | 9090 ft | 165 kts | 24° |
| 2026-05-08 19:35 | 50.24488 | -1.83820 | 9091 ft | 165 kts | 24° |
| 2026-05-08 19:36 | 50.25538 | -1.83103 | 9084 ft | 165 kts | 24° |
| 2026-05-08 19:36 | 50.26590 | -1.82384 | 9086 ft | 165 kts | 24° |
| 2026-05-08 19:36 | 50.27640 | -1.81666 | 9083 ft | 164 kts | 24° |
| 2026-05-08 19:36 | 50.28689 | -1.80948 | 9086 ft | 165 kts | 24° |
| 2026-05-08 19:37 | 50.29726 | -1.80239 | 9082 ft | 165 kts | 24° |
| 2026-05-08 19:37 | 50.30777 | -1.79519 | 9083 ft | 165 kts | 24° |
| 2026-05-08 19:37 | 50.31830 | -1.78798 | 9090 ft | 165 kts | 24° |
| 2026-05-08 19:37 | 50.32878 | -1.78081 | 9092 ft | 165 kts | 24° |
| 2026-05-08 19:38 | 50.33928 | -1.77362 | 9090 ft | 165 kts | 24° |
| 2026-05-08 19:38 | 50.34983 | -1.76640 | 9090 ft | 165 kts | 24° |
| 2026-05-08 19:38 | 50.36038 | -1.75921 | 9087 ft | 165 kts | 24° |
| 2026-05-08 19:38 | 50.37092 | -1.75211 | 9090 ft | 165 kts | 24° |
| 2026-05-08 19:39 | 50.38146 | -1.74490 | 9094 ft | 165 kts | 24° |
| 2026-05-08 19:39 | 50.39203 | -1.73763 | 9089 ft | 166 kts | 24° |
| 2026-05-08 19:39 | 50.40257 | -1.73037 | 9089 ft | 165 kts | 24° |
| 2026-05-08 19:39 | 50.41305 | -1.72315 | 9092 ft | 164 kts | 25° |
| 2026-05-08 19:40 | 50.42349 | -1.71595 | 9095 ft | 164 kts | 25° |
| 2026-05-08 19:40 | 50.43391 | -1.70876 | 9095 ft | 164 kts | 24° |
| 2026-05-08 19:40 | 50.44434 | -1.70156 | 9097 ft | 164 kts | 25° |
| 2026-05-08 19:40 | 50.45476 | -1.69437 | 9095 ft | 163 kts | 25° |
| 2026-05-08 19:41 | 50.46516 | -1.68718 | 9097 ft | 163 kts | 25° |
| 2026-05-08 19:41 | 50.47559 | -1.67997 | 9091 ft | 164 kts | 25° |
| 2026-05-08 19:41 | 50.48590 | -1.67285 | 9094 ft | 159 kts | 25° |
| 2026-05-08 19:41 | 50.49587 | -1.66596 | 9087 ft | 154 kts | 25° |
| 2026-05-08 19:42 | 50.50560 | -1.65923 | 9096 ft | 152 kts | 25° |
| 2026-05-08 19:42 | 50.51521 | -1.65257 | 9088 ft | 150 kts | 25° |
| 2026-05-08 19:42 | 50.52488 | -1.64588 | 8996 ft | 155 kts | 25° |
| 2026-05-08 19:42 | 50.53494 | -1.63890 | 8867 ft | 161 kts | 25° |
| 2026-05-08 19:43 | 50.54532 | -1.63171 | 8733 ft | 165 kts | 25° |
| 2026-05-08 19:43 | 50.55589 | -1.62437 | 8607 ft | 168 kts | 25° |
| 2026-05-08 19:43 | 50.56664 | -1.61692 | 8480 ft | 170 kts | 25° |
| 2026-05-08 19:43 | 50.57749 | -1.60939 | 8355 ft | 171 kts | 25° |
| 2026-05-08 19:44 | 50.58827 | -1.60191 | 8233 ft | 172 kts | 25° |
| 2026-05-08 19:44 | 50.59933 | -1.59423 | 8069 ft | 176 kts | 25° |
| 2026-05-08 19:44 | 50.61069 | -1.58633 | 7863 ft | 180 kts | 25° |
| 2026-05-08 19:44 | 50.62225 | -1.57829 | 7665 ft | 183 kts | 25° |
| 2026-05-08 19:45 | 50.63390 | -1.57018 | 7459 ft | 185 kts | 25° |
| 2026-05-08 19:45 | 50.64567 | -1.56199 | 7217 ft | 184 kts | 25° |
| 2026-05-08 19:45 | 50.65736 | -1.55385 | 6972 ft | 183 kts | 25° |
| 2026-05-08 19:45 | 50.66904 | -1.54571 | 6728 ft | 184 kts | 25° |
| 2026-05-08 19:46 | 50.68071 | -1.53758 | 6488 ft | 183 kts | 25° |
| 2026-05-08 19:46 | 50.69238 | -1.52944 | 6233 ft | 184 kts | 25° |
| 2026-05-08 19:46 | 50.71541 | -1.51338 | 5720 ft | 176 kts | 25° |
| 2026-05-08 19:47 | 50.72634 | -1.50575 | 5460 ft | 168 kts | 26° |
| 2026-05-08 19:47 | 50.73656 | -1.49764 | 5204 ft | 161 kts | 37° |
| 2026-05-08 19:47 | 50.74546 | -1.48723 | 4954 ft | 158 kts | 40° |
| 2026-05-08 19:47 | 50.75402 | -1.47699 | 4694 ft | 150 kts | 40° |
| 2026-05-08 19:48 | 50.76220 | -1.46721 | 4430 ft | 144 kts | 42° |
| 2026-05-08 19:48 | 50.76941 | -1.45676 | 4165 ft | 140 kts | 39° |
| 2026-05-08 19:48 | 50.77789 | -1.44908 | 3911 ft | 140 kts | 29° |
| 2026-05-08 19:48 | 50.78683 | -1.44300 | 3653 ft | 140 kts | 20° |
| 2026-05-08 19:49 | 50.79626 | -1.43885 | 3400 ft | 141 kts | 18° |
| 2026-05-08 19:49 | 50.80574 | -1.43484 | 3144 ft | 141 kts | 18° |
| 2026-05-08 19:49 | 50.81506 | -1.43091 | 2883 ft | 130 kts | 18° |
| 2026-05-08 19:49 | 50.82289 | -1.42784 | 2619 ft | 104 kts | 18° |
| 2026-05-08 19:50 | 50.82970 | -1.42530 | 2362 ft | 101 kts | 20° |
| 2026-05-08 19:50 | 50.83656 | -1.42227 | 2107 ft | 103 kts | 23° |
| 2026-05-08 19:50 | 50.84333 | -1.41893 | 1902 ft | 100 kts | 25° |
| 2026-05-08 19:50 | 50.84984 | -1.41532 | 1706 ft | 98 kts | 25° |
| 2026-05-08 19:51 | 50.85602 | -1.41184 | 1547 ft | 93 kts | 27° |
| 2026-05-08 19:51 | 50.86204 | -1.40819 | 1444 ft | 92 kts | 27° |
| 2026-05-08 19:51 | 50.86773 | -1.40423 | 1375 ft | 90 kts | 30° |
| 2026-05-08 19:51 | 50.87347 | -1.40037 | 1295 ft | 91 kts | 27° |
| 2026-05-08 19:52 | 50.87941 | -1.39678 | 1202 ft | 91 kts | 24° |
| 2026-05-08 19:52 | 50.88532 | -1.39345 | 1132 ft | 90 kts | 22° |
| 2026-05-08 19:52 | 50.89121 | -1.39028 | 1080 ft | 88 kts | 23° |
| 2026-05-08 19:52 | 50.89692 | -1.38704 | 1026 ft | 87 kts | 24° |
| 2026-05-08 19:53 | 50.90256 | -1.38376 | 950 ft | 86 kts | 23° |
| 2026-05-08 19:53 | 50.90823 | -1.38042 | 867 ft | 87 kts | 22° |
| 2026-05-08 19:53 | 50.91387 | -1.37715 | 755 ft | 87 kts | 23° |
| 2026-05-08 19:53 | 50.91962 | -1.37390 | 622 ft | 87 kts | 22° |
| 2026-05-08 19:54 | 50.92522 | -1.37087 | 504 ft | 85 kts | 21° |
| 2026-05-08 19:54 | 50.92888 | -1.36890 | 430 ft | 84 kts | 22° |
| 2026-05-08 19:54 | 50.93433 | -1.36578 | 320 ft | 83 kts | 21° |
| 2026-05-08 19:54 | 50.93969 | -1.36277 | 168 ft | 81 kts | 21° |
| 2026-05-08 19:55 | 50.94492 | -1.35981 | 46 ft | 76 kts | 21° |
| 2026-05-08 19:55 | 50.94851 | -1.35770 | 40 ft | 30 kts | 19° |
| 2026-05-08 19:55 | 50.94959 | -1.35715 | 41 ft | 12 kts | 18° |
| 2026-05-08 19:55 | 50.95022 | -1.35743 | 42 ft | 9 kts | 292° |
| 2026-05-08 19:56 | 50.95037 | -1.35819 | 44 ft | 7 kts | 289° |
| 2026-05-08 19:56 | 50.95059 | -1.35892 | 44 ft | 8 kts | 306° |
| 2026-05-08 19:56 | 50.95118 | -1.35886 | 43 ft | 11 kts | 18° |
| 2026-05-08 19:56 | 50.95187 | -1.35877 | 43 ft | 8 kts | 348° |
| 2026-05-08 19:57 | 50.95203 | -1.35906 | 44 ft | 3 kts | 170° |
| 2026-05-08 19:57 | 50.95202 | -1.35905 | 44 ft | 0 kts | 165° |